Аэропорт: Талаги. Архангельск

ICAO: ULAA

METAR:
2024-07-24 14:00:00
ULAA 241400Z 33004MPS 280V010 9999 FEW036 25/13 Q1014 R26/CLRD70 NOSIG RMK QFE759/1012
TAF:
2024-07-24 11:00:00
TAF ULAA 241100Z 2412/2512 30003MPS 9999 FEW030 
  TEMPO 2412/2512 36003MPS SCT025